createdAt,value
2017-07-26T00:01:40.381Z,92.65
2017-07-26T00:04:12.639Z,92.68
2017-07-26T00:06:44.987Z,92.84
2017-07-26T00:09:17.240Z,93.00
2017-07-26T00:11:49.776Z,92.75
2017-07-26T00:14:21.941Z,92.83
2017-07-26T00:16:54.267Z,92.82
2017-07-26T00:19:26.706Z,92.86
2017-07-26T00:21:59.082Z,92.93
2017-07-26T00:24:31.518Z,92.94
2017-07-26T00:27:04.066Z,93.01
2017-07-26T00:29:36.260Z,93.03
2017-07-26T00:32:08.564Z,93.04
2017-07-26T00:34:40.898Z,93.12
2017-07-26T00:37:13.384Z,93.17
2017-07-26T00:39:45.626Z,93.06
2017-07-26T00:42:17.939Z,93.10
2017-07-26T00:44:50.259Z,93.03
2017-07-26T00:47:22.451Z,93.13
2017-07-26T00:49:54.666Z,93.23
2017-07-26T00:52:26.827Z,93.25
2017-07-26T00:54:59.202Z,93.26
2017-07-26T00:57:31.360Z,93.17
2017-07-26T01:00:04.756Z,93.12
2017-07-26T01:02:37.218Z,93.02
2017-07-26T01:05:09.718Z,93.19
2017-07-26T01:07:42.023Z,93.16
2017-07-26T01:10:14.444Z,93.08
2017-07-26T01:12:46.876Z,93.04
2017-07-26T01:15:19.222Z,92.89
2017-07-26T01:17:52.369Z,92.90
2017-07-26T01:20:25.064Z,92.85
2017-07-26T01:22:57.443Z,92.96
2017-07-26T01:25:29.744Z,93.15
2017-07-26T01:28:02.006Z,93.24
2017-07-26T01:30:34.456Z,93.28
2017-07-26T01:33:06.846Z,93.50
2017-07-26T01:35:39.122Z,93.49
2017-07-26T01:38:11.283Z,93.36
2017-07-26T01:40:43.562Z,93.36
2017-07-26T01:43:15.725Z,93.37
2017-07-26T01:45:48.054Z,93.55
2017-07-26T01:48:20.454Z,93.50
2017-07-26T01:50:52.844Z,93.63
2017-07-26T01:53:25.192Z,93.59
2017-07-26T01:55:57.501Z,93.53
2017-07-26T01:58:29.848Z,93.61
2017-07-26T02:01:02.304Z,93.52
2017-07-26T02:03:34.581Z,93.53
2017-07-26T02:06:07.092Z,93.31
2017-07-26T02:08:39.271Z,93.15
2017-07-26T02:11:11.713Z,93.05
2017-07-26T02:13:44.050Z,93.01
2017-07-26T02:16:16.436Z,93.13
2017-07-26T02:18:48.727Z,93.17
2017-07-26T02:21:21.198Z,93.10
2017-07-26T02:23:53.387Z,93.04
2017-07-26T02:26:25.695Z,93.21
2017-07-26T02:28:57.995Z,93.12
2017-07-26T02:31:30.388Z,93.03
2017-07-26T02:34:02.620Z,92.99
2017-07-26T02:36:35.187Z,92.86
2017-07-26T02:39:07.482Z,92.76
2017-07-26T02:41:39.821Z,92.90
2017-07-26T02:44:12.136Z,92.99
2017-07-26T02:46:44.578Z,92.76
2017-07-26T02:49:16.732Z,92.89
2017-07-26T02:51:49.232Z,92.79
2017-07-26T02:54:21.435Z,92.80
2017-07-26T02:56:53.770Z,92.64
2017-07-26T02:59:26.267Z,92.77
2017-07-26T03:01:58.682Z,92.91
2017-07-26T03:04:31.099Z,92.66
2017-07-26T03:07:03.508Z,92.61
2017-07-26T03:09:35.739Z,92.58
2017-07-26T03:12:08.206Z,92.47
2017-07-26T03:14:40.703Z,92.40
2017-07-26T03:17:12.942Z,92.46
2017-07-26T03:19:45.293Z,92.38
2017-07-26T03:22:17.611Z,92.41
2017-07-26T03:24:49.922Z,92.49
2017-07-26T03:27:22.263Z,92.44
2017-07-26T03:29:54.533Z,92.53
2017-07-26T03:32:26.855Z,92.55
2017-07-26T03:34:59.119Z,92.58
2017-07-26T03:37:31.427Z,92.73
2017-07-26T03:40:03.776Z,92.74
2017-07-26T03:42:36.199Z,92.95
2017-07-26T03:45:08.618Z,93.24
2017-07-26T03:47:40.895Z,93.25
2017-07-26T03:50:13.208Z,93.39
2017-07-26T03:52:45.444Z,93.65
2017-07-26T03:55:17.695Z,93.85
2017-07-26T03:57:50.020Z,93.89
2017-07-26T04:00:22.373Z,93.69
2017-07-26T04:02:54.798Z,93.73
2017-07-26T04:05:27.115Z,93.85
2017-07-26T04:07:59.433Z,93.72
2017-07-26T04:10:31.852Z,93.64
2017-07-26T04:13:04.235Z,93.66
2017-07-26T04:15:36.412Z,93.58
2017-07-26T04:18:08.665Z,93.52
2017-07-26T04:20:40.972Z,93.19
2017-07-26T04:23:13.240Z,92.90
2017-07-26T04:25:45.558Z,92.80
2017-07-26T04:28:17.798Z,92.86
2017-07-26T04:30:50.090Z,92.56
2017-07-26T04:33:22.384Z,92.19
2017-07-26T04:35:54.656Z,91.82
2017-07-26T04:38:27.025Z,91.69
2017-07-26T04:40:59.392Z,91.58
2017-07-26T04:43:31.611Z,91.06
2017-07-26T04:46:03.839Z,90.68
2017-07-26T04:48:36.202Z,90.47
2017-07-26T04:51:08.523Z,90.23
2017-07-26T04:53:40.911Z,89.86
2017-07-26T04:56:13.163Z,89.60
2017-07-26T04:58:46.046Z,88.98
2017-07-26T05:01:17.876Z,88.65
2017-07-26T05:03:50.254Z,88.77
2017-07-26T05:06:22.652Z,88.90
2017-07-26T05:08:54.980Z,88.91
2017-07-26T05:11:27.349Z,88.89
2017-07-26T05:13:59.695Z,88.58
2017-07-26T05:16:32.034Z,88.54
2017-07-26T05:19:04.426Z,88.46
2017-07-26T05:21:36.695Z,88.76
2017-07-26T05:24:09.126Z,88.81
2017-07-26T05:26:41.420Z,89.19
2017-07-26T05:29:13.888Z,89.27
2017-07-26T05:31:46.144Z,89.17
2017-07-26T05:34:18.464Z,89.27
2017-07-26T05:36:50.895Z,89.50
2017-07-26T05:39:23.204Z,89.56
2017-07-26T05:41:55.459Z,89.91
2017-07-26T05:44:27.745Z,90.01
2017-07-26T05:47:00.000Z,89.97
2017-07-26T05:49:32.400Z,90.30
2017-07-26T05:52:04.635Z,90.13
2017-07-26T05:54:37.007Z,90.29
2017-07-26T05:57:09.393Z,90.11
2017-07-26T05:59:41.816Z,90.08
2017-07-26T06:02:14.076Z,90.40
2017-07-26T06:04:46.638Z,90.32
2017-07-26T06:07:18.908Z,90.27
2017-07-26T06:09:51.342Z,90.29
2017-07-26T06:12:23.625Z,90.09
2017-07-26T06:14:56.102Z,90.18
2017-07-26T06:17:28.388Z,89.78
2017-07-26T06:20:00.854Z,89.39
2017-07-26T06:22:33.343Z,89.30
2017-07-26T06:25:05.623Z,89.14
2017-07-26T06:27:38.028Z,89.58
2017-07-26T06:30:10.420Z,89.30
2017-07-26T06:32:42.788Z,88.85
2017-07-26T06:35:15.183Z,88.89
2017-07-26T06:37:47.656Z,88.75
2017-07-26T06:40:19.950Z,88.42
2017-07-26T06:42:52.933Z,88.53
2017-07-26T06:45:25.591Z,88.47
2017-07-26T06:47:57.810Z,88.18
2017-07-26T06:50:30.175Z,88.48
2017-07-26T06:53:02.529Z,88.77
2017-07-26T06:55:34.979Z,88.84
2017-07-26T06:58:07.333Z,88.76
2017-07-26T07:00:39.706Z,88.64
2017-07-26T07:03:11.980Z,88.27
2017-07-26T07:05:44.232Z,88.26
2017-07-26T07:08:16.555Z,87.79
2017-07-26T07:10:48.920Z,86.83
2017-07-26T07:13:21.291Z,86.77
2017-07-26T07:15:53.595Z,86.33
2017-07-26T07:18:25.934Z,86.23
2017-07-26T07:20:58.119Z,86.17
2017-07-26T07:23:30.515Z,85.35
2017-07-26T07:26:02.817Z,85.19
2017-07-26T07:28:34.943Z,84.55
2017-07-26T07:31:07.370Z,83.64
2017-07-26T07:33:39.673Z,81.20
2017-07-26T07:36:11.950Z,76.95
2017-07-26T07:38:44.255Z,76.06
2017-07-26T07:41:16.695Z,77.19
2017-07-26T07:43:48.948Z,78.19
2017-07-26T07:46:21.306Z,78.65
2017-07-26T07:48:53.703Z,78.58
2017-07-26T07:51:26.035Z,79.33
2017-07-26T07:53:58.402Z,79.62
2017-07-26T07:56:30.660Z,80.93
2017-07-26T07:59:02.972Z,80.23
2017-07-26T08:01:35.359Z,80.33
2017-07-26T08:04:07.859Z,79.93
2017-07-26T08:06:40.190Z,79.30
2017-07-26T08:09:12.413Z,77.93
2017-07-26T08:11:45.026Z,78.11
2017-07-26T08:14:17.099Z,78.64
2017-07-26T08:16:49.435Z,78.17
2017-07-26T08:19:21.793Z,76.04
2017-07-26T08:21:54.083Z,75.20
2017-07-26T08:24:26.334Z,75.53
2017-07-26T08:26:58.594Z,76.12
2017-07-26T08:29:30.872Z,76.02
2017-07-26T08:32:03.111Z,73.35
2017-07-26T08:34:35.408Z,72.07
2017-07-26T08:37:07.727Z,71.08
2017-07-26T08:39:40.042Z,67.87
2017-07-26T08:42:12.336Z,68.21
2017-07-26T08:44:44.567Z,69.18
2017-07-26T08:47:16.972Z,69.28
2017-07-26T08:49:49.322Z,69.37
2017-07-26T08:52:21.801Z,69.35
2017-07-26T08:54:54.185Z,69.98
2017-07-26T08:57:26.646Z,68.86
2017-07-26T08:59:59.012Z,69.24
2017-07-26T09:02:31.383Z,68.34
2017-07-26T09:05:03.774Z,68.85
2017-07-26T09:07:36.233Z,68.06
2017-07-26T09:10:08.520Z,66.97
2017-07-26T09:12:41.009Z,67.37
2017-07-26T09:15:13.392Z,66.90
2017-07-26T09:17:45.730Z,67.76
2017-07-26T09:20:18.094Z,67.95
2017-07-26T09:22:50.487Z,66.86
2017-07-26T09:25:22.848Z,66.71
2017-07-26T09:27:55.356Z,66.23
2017-07-26T09:30:27.682Z,64.45
2017-07-26T09:33:00.055Z,64.71
2017-07-26T09:35:32.403Z,63.28
2017-07-26T09:38:04.931Z,62.20
2017-07-26T09:40:37.263Z,61.62
2017-07-26T09:43:09.599Z,57.83
2017-07-26T09:45:41.826Z,58.51
2017-07-26T09:48:14.227Z,57.81
2017-07-26T09:50:46.532Z,56.51
2017-07-26T09:53:18.852Z,57.01
2017-07-26T09:55:51.130Z,56.93
2017-07-26T09:58:23.532Z,56.70
2017-07-26T10:00:55.870Z,55.51
2017-07-26T10:03:28.280Z,52.39
2017-07-26T10:06:00.590Z,52.73
2017-07-26T10:08:33.019Z,53.81
2017-07-26T10:11:05.579Z,53.28
2017-07-26T10:13:37.770Z,54.70
2017-07-26T10:16:10.042Z,49.78
2017-07-26T10:18:42.428Z,48.79
2017-07-26T10:21:14.847Z,45.92
2017-07-26T10:23:47.376Z,43.10
2017-07-26T10:26:19.733Z,43.58
2017-07-26T10:28:52.083Z,43.33
2017-07-26T10:31:24.547Z,43.47
2017-07-26T10:33:56.938Z,44.38
2017-07-26T10:36:29.218Z,43.77
2017-07-26T10:39:01.703Z,42.65
2017-07-26T10:41:34.060Z,42.86
2017-07-26T10:44:06.556Z,41.57
2017-07-26T10:46:38.995Z,43.57
2017-07-26T10:49:11.290Z,44.37
2017-07-26T10:51:43.666Z,41.41
2017-07-26T10:54:16.096Z,39.03
2017-07-26T10:56:48.367Z,39.53
2017-07-26T10:59:21.694Z,40.74
2017-07-26T11:01:54.095Z,40.19
2017-07-26T11:04:26.542Z,41.72
2017-07-26T11:06:58.840Z,41.13
2017-07-26T11:09:32.222Z,41.25
2017-07-26T11:12:04.640Z,39.19
2017-07-26T11:14:37.111Z,37.01
2017-07-26T11:17:09.465Z,36.04
2017-07-26T11:19:41.900Z,37.57
2017-07-26T11:22:14.379Z,35.93
2017-07-26T11:24:46.709Z,33.79
2017-07-26T11:27:19.216Z,34.89
2017-07-26T11:29:51.647Z,35.85
2017-07-26T11:32:24.098Z,35.46
2017-07-26T11:34:56.494Z,36.98
2017-07-26T11:37:28.826Z,37.65
2017-07-26T11:40:01.252Z,39.46
2017-07-26T11:42:33.604Z,39.66
2017-07-26T11:45:05.955Z,39.79
2017-07-26T11:47:38.307Z,40.83
2017-07-26T11:50:10.697Z,41.45
2017-07-26T11:52:43.200Z,42.44
2017-07-26T11:55:15.594Z,42.65
2017-07-26T11:57:47.991Z,42.45
2017-07-26T12:00:20.502Z,42.64
2017-07-26T12:02:52.871Z,45.09
2017-07-26T12:05:25.354Z,45.24
2017-07-26T12:07:57.827Z,44.29
2017-07-26T12:10:30.129Z,45.93
2017-07-26T12:13:02.458Z,45.37
2017-07-26T12:15:34.768Z,46.85
2017-07-26T12:18:07.166Z,44.67
2017-07-26T12:20:39.578Z,42.80
2017-07-26T12:23:11.958Z,44.62
2017-07-26T12:25:44.195Z,43.25
2017-07-26T12:28:16.526Z,43.80
2017-07-26T12:30:48.913Z,42.85
2017-07-26T12:33:21.170Z,42.53
2017-07-26T12:35:53.518Z,42.79
2017-07-26T12:38:25.897Z,42.20
2017-07-26T12:40:58.272Z,43.67
2017-07-26T12:43:30.678Z,44.41
2017-07-26T12:46:03.056Z,41.79
2017-07-26T12:48:35.492Z,42.50
2017-07-26T12:51:08.151Z,43.81
2017-07-26T12:53:40.235Z,43.72
2017-07-26T12:56:12.639Z,42.88
2017-07-26T12:58:44.909Z,43.87
2017-07-26T13:01:17.385Z,44.07
2017-07-26T13:03:49.559Z,43.29
2017-07-26T13:06:21.944Z,44.06
2017-07-26T13:08:54.347Z,44.02
2017-07-26T13:11:26.799Z,44.75
2017-07-26T13:13:59.219Z,45.94
2017-07-26T13:16:31.987Z,46.79
2017-07-26T13:19:04.093Z,47.33
2017-07-26T13:21:36.630Z,47.24
2017-07-26T13:24:08.735Z,47.57
2017-07-26T13:26:41.123Z,47.88
2017-07-26T13:29:13.476Z,47.30
2017-07-26T13:31:45.848Z,46.75
2017-07-26T13:34:18.300Z,46.50
2017-07-26T13:36:50.718Z,47.08
2017-07-26T13:39:23.154Z,46.96
2017-07-26T13:41:55.579Z,46.70
2017-07-26T13:44:27.974Z,47.31
2017-07-26T13:47:00.415Z,45.70
2017-07-26T13:49:32.745Z,46.17
2017-07-26T13:52:05.168Z,46.34
2017-07-26T13:54:37.460Z,42.83
2017-07-26T13:57:09.900Z,44.24
2017-07-26T13:59:42.095Z,41.68
2017-07-26T14:02:14.366Z,43.19
2017-07-26T14:04:46.679Z,42.66
2017-07-26T14:07:18.970Z,42.93
2017-07-26T14:09:51.231Z,41.38
2017-07-26T14:12:23.622Z,42.48
2017-07-26T14:14:55.990Z,42.49
2017-07-26T14:17:28.384Z,43.01
2017-07-26T14:20:00.922Z,44.67
2017-07-26T14:22:33.400Z,46.21
2017-07-26T14:25:05.688Z,47.51
2017-07-26T14:27:38.108Z,48.94
2017-07-26T14:30:10.467Z,49.55
2017-07-26T14:32:42.817Z,49.66
2017-07-26T14:35:15.171Z,48.63
2017-07-26T14:37:48.758Z,48.99
2017-07-26T14:40:21.153Z,49.92
2017-07-26T14:42:53.543Z,49.23
2017-07-26T14:45:25.907Z,48.67
2017-07-26T14:47:59.253Z,47.29
2017-07-26T14:50:31.662Z,48.51
2017-07-26T14:53:04.052Z,47.50
2017-07-26T14:55:36.450Z,47.47
2017-07-26T14:58:08.818Z,48.83
2017-07-26T15:00:41.240Z,48.15
2017-07-26T15:03:13.321Z,47.17
2017-07-26T15:05:45.691Z,45.39
2017-07-26T15:08:17.998Z,46.70
2017-07-26T15:10:50.261Z,47.38
2017-07-26T15:13:22.604Z,48.78
2017-07-26T15:15:55.086Z,47.92
2017-07-26T15:18:27.592Z,49.36
2017-07-26T15:21:00.035Z,49.59
2017-07-26T15:23:32.459Z,49.67
2017-07-26T15:26:05.184Z,50.39
2017-07-26T15:28:37.267Z,49.79
2017-07-26T15:31:09.643Z,49.94
2017-07-26T15:33:42.127Z,50.07
2017-07-26T15:36:14.480Z,49.79
2017-07-26T15:38:46.869Z,49.69
2017-07-26T15:41:19.295Z,48.63
2017-07-26T15:43:51.640Z,49.15
2017-07-26T15:46:24.067Z,49.41
2017-07-26T15:48:56.414Z,48.57
2017-07-26T15:51:29.021Z,47.25
2017-07-26T15:54:01.178Z,48.04
2017-07-26T15:56:33.661Z,44.10
2017-07-26T15:59:06.159Z,45.42
2017-07-26T16:01:38.444Z,46.41
2017-07-26T16:04:10.793Z,46.46
2017-07-26T16:06:43.056Z,46.99
2017-07-26T16:09:15.527Z,48.04
2017-07-26T16:11:48.010Z,48.55
2017-07-26T16:14:21.508Z,48.44
2017-07-26T16:16:54.024Z,49.30
2017-07-26T16:19:26.413Z,50.21
2017-07-26T16:21:58.750Z,51.18
2017-07-26T16:24:31.131Z,50.92
2017-07-26T16:27:03.519Z,51.37
2017-07-26T16:29:35.841Z,50.44
2017-07-26T16:32:08.061Z,50.36
2017-07-26T16:34:40.424Z,50.35
2017-07-26T16:37:12.762Z,51.13
2017-07-26T16:39:45.193Z,51.52
2017-07-26T16:42:17.426Z,50.03
2017-07-26T16:44:49.859Z,49.43
2017-07-26T16:47:22.168Z,50.24
2017-07-26T16:49:54.658Z,50.85
2017-07-26T16:52:27.015Z,49.14
2017-07-26T16:54:59.420Z,48.46
2017-07-26T16:57:31.771Z,47.52
2017-07-26T17:00:03.947Z,48.18
2017-07-26T17:02:36.266Z,48.77
2017-07-26T17:05:08.683Z,48.97
2017-07-26T17:07:41.078Z,48.31
2017-07-26T17:10:13.548Z,49.56
2017-07-26T17:12:45.982Z,49.40
2017-07-26T17:15:18.338Z,49.59
2017-07-26T17:17:50.583Z,49.28
2017-07-26T17:20:22.875Z,50.46
2017-07-26T17:22:55.202Z,50.59
2017-07-26T17:25:27.517Z,50.60
2017-07-26T17:27:59.863Z,51.29
2017-07-26T17:30:32.115Z,52.05
2017-07-26T17:33:04.462Z,53.29
2017-07-26T17:35:36.712Z,53.35
2017-07-26T17:38:09.003Z,53.10
2017-07-26T17:40:41.323Z,53.59
2017-07-26T17:43:13.682Z,54.33
2017-07-26T17:45:47.095Z,55.57
2017-07-26T17:48:19.479Z,55.21
2017-07-26T17:50:51.795Z,55.72
2017-07-26T17:53:24.085Z,55.71
2017-07-26T17:55:56.313Z,55.89
2017-07-26T17:58:28.595Z,56.00
2017-07-26T18:01:00.980Z,56.36
2017-07-26T18:03:43.287Z,56.84
2017-07-26T18:06:15.495Z,57.14
2017-07-26T18:08:47.845Z,57.54
2017-07-26T18:11:20.200Z,57.00
2017-07-26T18:13:52.526Z,57.60
2017-07-26T18:16:24.843Z,58.42
2017-07-26T18:18:57.053Z,59.02
2017-07-26T18:21:29.320Z,58.89
2017-07-26T18:24:01.700Z,58.98
2017-07-26T18:26:34.147Z,58.54
2017-07-26T18:29:06.651Z,59.25
2017-07-26T18:31:38.996Z,59.20
2017-07-26T18:34:11.466Z,59.80
2017-07-26T18:36:43.940Z,59.87
2017-07-26T18:39:16.300Z,59.84
2017-07-26T18:41:48.639Z,59.46
2017-07-26T18:44:20.992Z,59.52
2017-07-26T18:46:53.371Z,59.79
2017-07-26T18:49:25.816Z,59.58
2017-07-26T18:51:58.308Z,60.40
2017-07-26T18:54:30.564Z,60.90
2017-07-26T18:57:02.927Z,60.93
2017-07-26T18:59:35.418Z,61.80
2017-07-26T19:02:07.755Z,62.30
2017-07-26T19:04:40.120Z,63.07
2017-07-26T19:07:12.412Z,63.08
2017-07-26T19:09:44.924Z,63.56
2017-07-26T19:12:17.349Z,63.79
2017-07-26T19:14:49.690Z,64.30
2017-07-26T19:17:22.122Z,65.02
2017-07-26T19:19:54.531Z,66.47
2017-07-26T19:22:26.883Z,67.00
2017-07-26T19:24:59.255Z,68.23
2017-07-26T19:27:31.623Z,67.90
2017-07-26T19:30:04.130Z,68.14
2017-07-26T19:32:36.488Z,68.41
2017-07-26T19:35:09.011Z,68.84
2017-07-26T19:37:41.251Z,69.57
2017-07-26T19:40:13.642Z,70.50
2017-07-26T19:42:45.992Z,71.26
2017-07-26T19:45:18.351Z,72.46
2017-07-26T19:47:50.799Z,72.79
2017-07-26T19:50:23.198Z,73.02
2017-07-26T19:52:55.738Z,73.13
2017-07-26T19:55:28.212Z,73.95
2017-07-26T19:58:00.590Z,74.00
2017-07-26T20:00:32.983Z,74.20
2017-07-26T20:03:05.289Z,74.60
2017-07-26T20:05:37.683Z,76.08
2017-07-26T20:08:10.170Z,76.68
2017-07-26T20:10:42.694Z,76.52
2017-07-26T20:13:14.874Z,76.92
2017-07-26T20:15:47.255Z,76.49
2017-07-26T20:18:19.601Z,76.20
2017-07-26T20:20:52.027Z,76.02
2017-07-26T20:23:24.303Z,76.00
2017-07-26T20:25:56.739Z,76.09
2017-07-26T20:28:29.082Z,76.98
2017-07-26T20:31:01.523Z,76.30
2017-07-26T20:33:33.958Z,76.79
2017-07-26T20:36:06.360Z,77.00
2017-07-26T20:38:38.724Z,76.77
2017-07-26T20:41:11.127Z,76.45
2017-07-26T20:43:43.427Z,76.25
2017-07-26T20:46:15.827Z,75.63
2017-07-26T20:48:48.264Z,75.77
2017-07-26T20:51:20.662Z,75.77
2017-07-26T20:53:52.938Z,75.94
2017-07-26T20:56:25.418Z,76.75
2017-07-26T20:58:57.746Z,76.70
2017-07-26T21:01:30.180Z,76.42
2017-07-26T21:04:02.498Z,76.44
2017-07-26T21:06:34.847Z,77.37
2017-07-26T21:09:07.215Z,77.11
2017-07-26T21:11:39.791Z,76.91
2017-07-26T21:14:12.080Z,76.65
2017-07-26T21:16:44.692Z,76.94
2017-07-26T21:19:17.046Z,76.59
2017-07-26T21:21:49.464Z,76.51
2017-07-26T21:24:21.731Z,76.60
2017-07-26T21:26:54.132Z,76.67
2017-07-26T21:29:26.537Z,76.24
2017-07-26T21:31:59.064Z,76.44
2017-07-26T21:34:31.386Z,76.10
2017-07-26T21:37:03.826Z,75.78
2017-07-26T21:39:36.174Z,75.80
2017-07-26T21:42:08.491Z,76.76
2017-07-26T21:44:40.809Z,77.02
2017-07-26T21:47:13.306Z,76.61
2017-07-26T21:49:45.663Z,76.26
2017-07-26T21:52:18.043Z,76.08
2017-07-26T21:54:50.350Z,75.90
2017-07-26T21:57:22.798Z,76.32
2017-07-26T21:59:55.263Z,76.37
2017-07-26T22:02:27.650Z,76.24
2017-07-26T22:05:00.030Z,76.83
2017-07-26T22:07:32.513Z,77.32
2017-07-26T22:10:04.823Z,77.53
2017-07-26T22:12:37.164Z,77.00
2017-07-26T22:15:09.431Z,78.59
2017-07-26T22:17:41.831Z,78.17
2017-07-26T22:20:14.192Z,77.82
2017-07-26T22:22:46.539Z,78.30
2017-07-26T22:25:18.819Z,78.21
2017-07-26T22:27:51.188Z,78.54
2017-07-26T22:30:23.455Z,78.50
2017-07-26T22:32:55.748Z,79.08
2017-07-26T22:35:28.087Z,79.75
2017-07-26T22:38:00.403Z,80.24
2017-07-26T22:40:32.743Z,80.36
2017-07-26T22:43:05.011Z,80.75
2017-07-26T22:45:37.310Z,80.95
2017-07-26T22:48:09.467Z,81.27
2017-07-26T22:50:41.820Z,80.98
2017-07-26T22:53:14.195Z,81.78
2017-07-26T22:55:46.462Z,81.75
2017-07-26T22:58:18.736Z,81.83
2017-07-26T23:00:51.027Z,82.01
2017-07-26T23:03:23.392Z,82.05
2017-07-26T23:05:55.668Z,81.89
2017-07-26T23:08:28.247Z,81.61
2017-07-26T23:11:00.496Z,81.67
2017-07-26T23:13:32.959Z,81.63
2017-07-26T23:16:05.383Z,81.28
2017-07-26T23:18:38.749Z,80.79
2017-07-26T23:21:11.132Z,80.58
2017-07-26T23:23:43.605Z,80.48
2017-07-26T23:26:15.652Z,80.45
2017-07-26T23:28:48.215Z,80.46
2017-07-26T23:31:20.268Z,80.70
2017-07-26T23:33:52.603Z,80.54
2017-07-26T23:36:24.864Z,80.18
2017-07-26T23:38:57.144Z,80.46
2017-07-26T23:41:29.367Z,80.48
2017-07-26T23:44:01.555Z,80.53
2017-07-26T23:46:33.956Z,80.76
2017-07-26T23:49:06.229Z,80.93
2017-07-26T23:51:38.581Z,80.91
2017-07-26T23:54:10.974Z,80.99
2017-07-26T23:56:43.301Z,80.60
2017-07-26T23:59:15.701Z,80.46
